Time;durP1;ratioP1;P1;durP2;ratioP2;P2;SDS_P1;SDS_P2;PMS_P1;PMS_P2;Temp;Humidity;BMP_temperature;BMP_pressure;BME280_temperature;BME280_humidity;BME280_pressure;Samples;Min_cycle;Max_cycle;Signal;HPM_P1;HPM_P2
2021/03/09 00:01:50;;;;;;;45.20;17.43;;;;;;;;;;4994412;28;20723;-71
2021/03/09 00:04:17;;;;;;;40.03;16.40;;;;;;;;;;4997674;28;20311;-72
2021/03/09 00:06:44;;;;;;;43.50;17.37;;;;;;;;;;4998878;28;20201;-71
2021/03/09 00:09:11;;;;;;;41.53;17.23;;;;;;;;;;4997281;28;20764;-71
2021/03/09 00:11:38;;;;;;;40.57;16.60;;;;;;;;;;4995928;28;20224;-71
2021/03/09 00:14:05;;;;;;;42.00;17.30;;;;;;;;;;5002433;28;20232;-71
2021/03/09 00:16:31;;;;;;;51.77;18.60;;;;;;;;;;4997358;28;20788;-71
2021/03/09 00:18:58;;;;;;;41.03;17.23;;;;;;;;;;4996032;28;20655;-72
2021/03/09 00:21:25;;;;;;;40.20;16.20;;;;;;;;;;4998545;28;20223;-71
2021/03/09 00:23:51;;;;;;;42.40;17.17;;;;;;;;;;4998429;28;20303;-71
2021/03/09 00:26:19;;;;;;;36.40;16.23;;;;;;;;;;4994955;28;20287;-72
2021/03/09 00:28:46;;;;;;;43.67;18.40;;;;;;;;;;4995741;28;20299;-72
2021/03/09 00:31:12;;;;;;;45.60;18.30;;;;;;;;;;4997619;28;20240;-73
2021/03/09 00:33:39;;;;;;;43.17;17.13;;;;;;;;;;4999757;28;20533;-72
2021/03/09 00:36:06;;;;;;;39.03;17.10;;;;;;;;;;5001906;28;20205;-73
2021/03/09 00:38:33;;;;;;;43.83;17.37;;;;;;;;;;4998294;28;20665;-69
2021/03/09 00:40:59;;;;;;;47.67;17.20;;;;;;;;;;4999076;28;20613;-73
2021/03/09 00:43:27;;;;;;;47.37;16.90;;;;;;;;;;5002681;28;20699;-72
2021/03/09 00:45:54;;;;;;;44.17;16.90;;;;;;;;;;4999314;28;20244;-72
2021/03/09 00:48:20;;;;;;;42.67;16.70;;;;;;;;;;5003343;28;20208;-71
2021/03/09 00:50:47;;;;;;;43.93;17.97;;;;;;;;;;4997686;28;20595;-71
2021/03/09 00:53:14;;;;;;;44.70;18.57;;;;;;;;;;4999784;28;20299;-71
2021/03/09 00:55:41;;;;;;;44.73;17.67;;;;;;;;;;5001415;28;20395;-71
2021/03/09 00:58:07;;;;;;;39.97;16.60;;;;;;;;;;4998863;28;20224;-72
2021/03/09 01:00:35;;;;;;;42.03;17.17;;;;;;;;;;4997447;28;20240;-72
2021/03/09 01:03:02;;;;;;;43.33;17.30;;;;;;;;;;5002157;28;20220;-72
2021/03/09 01:05:29;;;;;;;44.00;17.40;;;;;;;;;;4997062;28;20205;-73
2021/03/09 01:07:55;;;;;;;44.33;16.97;;;;;;;;;;4997699;28;20972;-73
2021/03/09 01:10:22;;;;;;;42.70;17.90;;;;;;;;;;4997384;28;20314;-70
2021/03/09 01:12:49;;;;;;;43.27;18.10;;;;;;;;;;4999632;28;20288;-71
2021/03/09 01:15:16;;;;;;;47.93;18.27;;;;;;;;;;5000909;28;20231;-72
2021/03/09 01:17:43;;;;;;;47.93;19.33;;;;;;;;;;4997564;28;20208;-71
2021/03/09 01:20:10;;;;;;;48.60;18.60;;;;;;;;;;4995994;28;20554;-72
2021/03/09 01:22:37;;;;;;;50.30;17.77;;;;;;;;;;4998749;28;20310;-72
2021/03/09 01:25:04;;;;;;;47.77;18.60;;;;;;;;;;4999312;28;20761;-72
2021/03/09 01:27:31;;;;;;;48.73;18.60;;;;;;;;;;4994612;28;20341;-74
2021/03/09 01:29:58;;;;;;;52.37;20.13;;;;;;;;;;5000694;28;20279;-72
2021/03/09 01:32:25;;;;;;;45.10;18.73;;;;;;;;;;4995780;28;20662;-70
2021/03/09 01:34:52;;;;;;;44.00;18.07;;;;;;;;;;4995738;28;20272;-71
2021/03/09 01:37:19;;;;;;;42.53;17.23;;;;;;;;;;4996515;28;20310;-71
2021/03/09 01:39:46;;;;;;;40.87;17.20;;;;;;;;;;4994162;28;20311;-71
2021/03/09 01:42:12;;;;;;;47.07;18.83;;;;;;;;;;4997191;28;20970;-72
2021/03/09 01:44:39;;;;;;;47.20;18.37;;;;;;;;;;4998110;28;21137;-71
2021/03/09 01:47:06;;;;;;;42.60;17.60;;;;;;;;;;4998579;28;20216;-71
2021/03/09 01:49:34;;;;;;;43.60;18.23;;;;;;;;;;4995560;28;20248;-71
2021/03/09 01:52:02;;;;;;;43.13;17.20;;;;;;;;;;4995951;28;20291;-72
2021/03/09 01:54:29;;;;;;;43.00;17.77;;;;;;;;;;5001246;28;20233;-72
2021/03/09 01:56:55;;;;;;;52.47;19.03;;;;;;;;;;4997735;28;20205;-73
2021/03/09 01:59:23;;;;;;;45.20;18.67;;;;;;;;;;4996707;28;20767;-71
2021/03/09 02:01:50;;;;;;;45.33;17.80;;;;;;;;;;4996917;28;20308;-70
2021/03/09 02:04:17;;;;;;;58.23;19.47;;;;;;;;;;4996196;28;20553;-72
2021/03/09 02:06:43;;;;;;;47.27;18.10;;;;;;;;;;4996887;28;20291;-71
2021/03/09 02:09:12;;;;;;;45.17;18.20;;;;;;;;;;4992283;28;20318;-71
2021/03/09 02:11:45;;;;;;;45.60;18.13;;;;;;;;;;4995496;28;20984;-73
2021/03/09 02:14:14;;;;;;;42.57;17.73;;;;;;;;;;4999054;28;20201;-72
2021/03/09 02:16:44;;;;;;;51.23;18.80;;;;;;;;;;4996458;28;20490;-71
2021/03/09 02:19:32;;;;;;;44.50;16.97;;;;;;;;;;4996151;28;20252;-71
2021/03/09 02:22:04;;;;;;;53.80;19.60;;;;;;;;;;4997399;28;20257;-71
2021/03/09 02:24:45;;;;;;;48.80;19.37;;;;;;;;;;4999009;28;20291;-72
2021/03/09 02:27:25;;;;;;;45.73;19.23;;;;;;;;;;5001307;28;20210;-72
2021/03/09 02:30:00;;;;;;;44.50;19.50;;;;;;;;;;5000149;28;20311;-72
2021/03/09 02:32:27;;;;;;;51.67;20.70;;;;;;;;;;4996170;28;20647;-72
2021/03/09 02:34:56;;;;;;;53.17;19.97;;;;;;;;;;4996811;28;20304;-73
2021/03/09 02:37:24;;;;;;;52.93;19.57;;;;;;;;;;4996536;28;20614;-73
2021/03/09 02:39:51;;;;;;;46.70;19.20;;;;;;;;;;4994578;28;20771;-72
2021/03/09 02:42:19;;;;;;;42.60;18.47;;;;;;;;;;4997063;28;20712;-71
2021/03/09 02:44:46;;;;;;;46.63;18.80;;;;;;;;;;4993355;28;20230;-72
2021/03/09 02:47:15;;;;;;;55.90;19.63;;;;;;;;;;4995436;28;20304;-72
2021/03/09 02:49:43;;;;;;;47.43;19.10;;;;;;;;;;4996374;28;20311;-72
2021/03/09 02:52:14;;;;;;;54.43;19.73;;;;;;;;;;4996051;28;20207;-72
2021/03/09 02:54:41;;;;;;;49.60;18.93;;;;;;;;;;4996156;28;20349;-72
2021/03/09 02:57:09;;;;;;;49.93;19.83;;;;;;;;;;4996021;28;20208;-71
2021/03/09 02:59:37;;;;;;;48.47;19.47;;;;;;;;;;4996548;28;20236;-72
2021/03/09 03:02:03;;;;;;;44.40;18.70;;;;;;;;;;4997349;28;20260;-72
2021/03/09 03:04:31;;;;;;;47.57;19.00;;;;;;;;;;4994759;28;20211;-72
2021/03/09 03:06:59;;;;;;;46.83;19.53;;;;;;;;;;4995516;28;20350;-71
2021/03/09 03:09:26;;;;;;;52.63;18.97;;;;;;;;;;4997868;28;20237;-72
2021/03/09 03:11:54;;;;;;;54.37;19.87;;;;;;;;;;4998076;28;20287;-71
2021/03/09 03:14:21;;;;;;;50.60;19.70;;;;;;;;;;4992684;28;20300;-72
2021/03/09 03:16:49;;;;;;;48.70;19.60;;;;;;;;;;4997782;28;20209;-70
2021/03/09 03:19:16;;;;;;;50.17;20.03;;;;;;;;;;4993740;28;20315;-70
2021/03/09 03:21:44;;;;;;;52.30;20.53;;;;;;;;;;4999639;28;20334;-70
2021/03/09 03:24:13;;;;;;;54.03;20.53;;;;;;;;;;5000225;28;20207;-70
2021/03/09 03:26:41;;;;;;;54.73;21.07;;;;;;;;;;4997725;28;20328;-70
2021/03/09 03:29:10;;;;;;;50.23;19.67;;;;;;;;;;4999571;28;20315;-71
2021/03/09 03:31:37;;;;;;;54.83;20.67;;;;;;;;;;5000166;28;21495;-71
2021/03/09 03:34:04;;;;;;;50.53;18.80;;;;;;;;;;4996767;28;20263;-71
2021/03/09 03:36:32;;;;;;;48.50;18.87;;;;;;;;;;5001185;28;20287;-71
2021/03/09 03:39:00;;;;;;;51.47;18.07;;;;;;;;;;4998516;28;20740;-70
2021/03/09 03:41:26;;;;;;;50.50;19.53;;;;;;;;;;4999648;28;20247;-69
2021/03/09 03:43:53;;;;;;;40.73;17.53;;;;;;;;;;4998347;28;20300;-70
2021/03/09 03:46:20;;;;;;;50.30;18.37;;;;;;;;;;5000093;28;20284;-70
2021/03/09 03:48:46;;;;;;;44.43;19.17;;;;;;;;;;5001677;28;20496;-70
2021/03/09 03:51:15;;;;;;;47.23;19.07;;;;;;;;;;4999726;28;20287;-71
2021/03/09 03:53:47;;;;;;;37.93;16.87;;;;;;;;;;4999798;28;20487;-71
2021/03/09 03:56:18;;;;;;;51.70;19.00;;;;;;;;;;5004975;28;20347;-70
2021/03/09 03:58:48;;;;;;;49.43;18.70;;;;;;;;;;4999239;28;20288;-70
2021/03/09 04:01:16;;;;;;;55.03;19.13;;;;;;;;;;5000952;28;20665;-71
2021/03/09 04:03:43;;;;;;;49.47;18.17;;;;;;;;;;5000777;28;20293;-71
2021/03/09 04:06:10;;;;;;;48.17;17.93;;;;;;;;;;4996481;28;20271;-71
2021/03/09 04:08:38;;;;;;;48.77;19.77;;;;;;;;;;4997758;28;20755;-71
2021/03/09 04:11:05;;;;;;;57.53;21.30;;;;;;;;;;4999267;28;20267;-71
2021/03/09 04:13:34;;;;;;;49.23;19.50;;;;;;;;;;4996533;28;20283;-71
2021/03/09 04:16:01;;;;;;;49.93;19.53;;;;;;;;;;4996843;28;20539;-71
2021/03/09 04:18:28;;;;;;;47.07;18.20;;;;;;;;;;4997355;28;20288;-70
2021/03/09 04:20:56;;;;;;;45.97;18.67;;;;;;;;;;4999155;28;20232;-70
2021/03/09 04:23:23;;;;;;;61.30;21.03;;;;;;;;;;4997641;28;20575;-70
2021/03/09 04:25:50;;;;;;;45.97;19.87;;;;;;;;;;4997618;28;20252;-71
2021/03/09 04:28:17;;;;;;;48.30;18.53;;;;;;;;;;4998182;28;20444;-70
2021/03/09 04:30:45;;;;;;;50.97;18.93;;;;;;;;;;5001446;28;20489;-71
2021/03/09 04:33:11;;;;;;;46.33;17.67;;;;;;;;;;4996634;28;20201;-71
2021/03/09 04:35:38;;;;;;;49.77;19.03;;;;;;;;;;4997217;28;20299;-70
2021/03/09 04:38:05;;;;;;;46.27;18.67;;;;;;;;;;4998751;28;20448;-70
2021/03/09 04:40:34;;;;;;;52.27;18.33;;;;;;;;;;4997151;28;20571;-71
2021/03/09 04:43:00;;;;;;;47.00;19.00;;;;;;;;;;4996730;28;20683;-71
2021/03/09 04:45:27;;;;;;;47.43;18.97;;;;;;;;;;4998507;28;20295;-71
2021/03/09 04:47:55;;;;;;;54.00;19.07;;;;;;;;;;4998971;28;20571;-71
2021/03/09 04:50:22;;;;;;;50.90;18.00;;;;;;;;;;4997911;28;20567;-70
2021/03/09 04:52:49;;;;;;;43.00;17.43;;;;;;;;;;4998731;28;20531;-70
2021/03/09 04:55:19;;;;;;;48.67;18.87;;;;;;;;;;4998248;28;20303;-70
2021/03/09 04:57:46;;;;;;;50.03;19.00;;;;;;;;;;4998120;28;20754;-70
2021/03/09 05:00:14;;;;;;;45.17;18.23;;;;;;;;;;4997940;28;20519;-71
2021/03/09 05:02:41;;;;;;;49.63;18.37;;;;;;;;;;4995033;28;20251;-71
2021/03/09 05:05:09;;;;;;;46.93;18.37;;;;;;;;;;4999190;28;20975;-70
2021/03/09 05:07:36;;;;;;;54.93;19.90;;;;;;;;;;4998846;28;21032;-71
2021/03/09 05:10:03;;;;;;;44.80;18.43;;;;;;;;;;4999915;28;20983;-70
2021/03/09 05:12:29;;;;;;;54.20;19.73;;;;;;;;;;4996293;28;20743;-70
2021/03/09 05:14:56;;;;;;;65.57;20.10;;;;;;;;;;4997824;28;20470;-71
2021/03/09 05:17:23;;;;;;;50.13;19.10;;;;;;;;;;4999601;28;20287;-71
2021/03/09 05:19:49;;;;;;;53.77;18.70;;;;;;;;;;4995894;28;20491;-72
2021/03/09 05:22:17;;;;;;;58.70;19.67;;;;;;;;;;5000824;28;20518;-71
2021/03/09 05:24:43;;;;;;;63.03;21.30;;;;;;;;;;5001068;28;20291;-72
2021/03/09 05:27:10;;;;;;;55.87;20.53;;;;;;;;;;4995302;28;20205;-70
2021/03/09 05:29:37;;;;;;;58.93;21.40;;;;;;;;;;4994468;28;20558;-71
2021/03/09 05:32:04;;;;;;;58.80;20.20;;;;;;;;;;4991691;28;20527;-72
2021/03/09 05:34:30;;;;;;;54.37;20.93;;;;;;;;;;4997794;28;20215;-71
2021/03/09 05:36:57;;;;;;;55.57;19.73;;;;;;;;;;4995063;28;20291;-72
2021/03/09 05:39:25;;;;;;;56.27;19.57;;;;;;;;;;4995342;28;20275;-72
2021/03/09 05:41:51;;;;;;;56.37;20.93;;;;;;;;;;4999887;28;20264;-71
2021/03/09 05:44:18;;;;;;;52.03;19.27;;;;;;;;;;4995181;28;20295;-71
2021/03/09 05:46:45;;;;;;;54.43;20.67;;;;;;;;;;4995866;28;20287;-70
2021/03/09 05:49:12;;;;;;;62.10;21.50;;;;;;;;;;4999595;28;20224;-71
2021/03/09 05:51:39;;;;;;;61.13;20.90;;;;;;;;;;5002013;28;20463;-72
2021/03/09 05:54:06;;;;;;;49.03;19.50;;;;;;;;;;4997031;28;20276;-71
2021/03/09 05:56:34;;;;;;;55.57;20.50;;;;;;;;;;4994959;28;20762;-73
2021/03/09 05:59:00;;;;;;;58.13;20.47;;;;;;;;;;4993040;28;20571;-71
2021/03/09 06:01:27;;;;;;;52.40;19.97;;;;;;;;;;4995990;28;21015;-73
2021/03/09 06:03:54;;;;;;;51.80;19.40;;;;;;;;;;4998915;28;20467;-76
2021/03/09 06:06:21;;;;;;;55.00;21.20;;;;;;;;;;4996179;28;20550;-72
2021/03/09 06:08:47;;;;;;;57.67;20.93;;;;;;;;;;4997878;28;20201;-74
2021/03/09 06:11:15;;;;;;;58.77;21.13;;;;;;;;;;4996934;28;20509;-70
2021/03/09 06:13:43;;;;;;;50.47;19.93;;;;;;;;;;4995106;28;20755;-72
2021/03/09 06:16:09;;;;;;;58.17;20.53;;;;;;;;;;4995172;28;20467;-72
2021/03/09 06:18:36;;;;;;;56.07;20.90;;;;;;;;;;5000699;28;20466;-72
2021/03/09 06:21:10;;;;;;;60.20;22.07;;;;;;;;;;4993280;28;20483;-74
2021/03/09 06:23:36;;;;;;;61.83;21.93;;;;;;;;;;4995066;28;20228;-72
2021/03/09 06:26:03;;;;;;;69.37;20.13;;;;;;;;;;4993778;28;20678;-74
2021/03/09 06:28:31;;;;;;;58.00;22.07;;;;;;;;;;4996022;28;20494;-74
2021/03/09 06:31:00;;;;;;;54.17;20.37;;;;;;;;;;4994533;28;20240;-71
2021/03/09 06:33:31;;;;;;;54.17;20.30;;;;;;;;;;4995669;28;20259;-75
2021/03/09 06:36:00;;;;;;;58.10;20.00;;;;;;;;;;4989761;28;20243;-71
2021/03/09 06:38:28;;;;;;;55.40;20.23;;;;;;;;;;4995156;28;20200;-71
2021/03/09 06:41:08;;;;;;;58.30;21.13;;;;;;;;;;4994421;28;20238;-75
2021/03/09 06:43:35;;;;;;;56.67;19.73;;;;;;;;;;5021596;22;21701;-83
2021/03/09 06:46:16;;;;;;;70.60;24.47;;;;;;;;;;5050500;28;20202;-83
2021/03/09 06:48:43;;;;;;;61.00;23.93;;;;;;;;;;5049819;28;20255;-83
2021/03/09 06:51:24;;;;;;;60.53;22.63;;;;;;;;;;5047087;28;20357;-83
2021/03/09 06:53:58;;;;;;;49.30;19.77;;;;;;;;;;5048338;28;20314;-82
2021/03/09 06:56:25;;;;;;;49.20;19.27;;;;;;;;;;5053060;28;20663;-83
2021/03/09 06:58:52;;;;;;;51.13;19.33;;;;;;;;;;5052763;28;20723;-82
2021/03/09 07:01:20;;;;;;;56.20;19.83;;;;;;;;;;5051269;28;20249;-83
2021/03/09 07:03:47;;;;;;;54.77;20.40;;;;;;;;;;5052993;28;20262;-82
2021/03/09 07:06:14;;;;;;;57.53;20.47;;;;;;;;;;5054207;28;20683;-82
2021/03/09 07:08:41;;;;;;;50.67;18.13;;;;;;;;;;5050739;28;20333;-82
2021/03/09 07:11:07;;;;;;;55.03;20.27;;;;;;;;;;5048516;28;20241;-82
2021/03/09 07:13:35;;;;;;;46.77;18.47;;;;;;;;;;5054237;28;20286;-82
2021/03/09 07:16:02;;;;;;;47.20;20.17;;;;;;;;;;5051858;28;20267;-83
2021/03/09 07:18:30;;;;;;;52.60;20.10;;;;;;;;;;5054187;28;20230;-82
2021/03/09 07:20:57;;;;;;;55.07;20.00;;;;;;;;;;5053624;28;20211;-83
2021/03/09 07:23:25;;;;;;;59.17;20.83;;;;;;;;;;5054778;28;20606;-82
2021/03/09 07:25:54;;;;;;;54.33;20.00;;;;;;;;;;5056308;28;20211;-82
2021/03/09 07:28:23;;;;;;;52.33;20.40;;;;;;;;;;5055522;28;20238;-83
2021/03/09 07:30:51;;;;;;;53.33;21.00;;;;;;;;;;5052335;28;20222;-81
2021/03/09 07:33:19;;;;;;;56.43;19.93;;;;;;;;;;5053598;28;20296;-83
2021/03/09 07:35:48;;;;;;;54.10;20.77;;;;;;;;;;5048740;28;20231;-82
2021/03/09 07:38:19;;;;;;;57.73;21.37;;;;;;;;;;5051238;28;20273;-82
2021/03/09 07:40:45;;;;;;;52.87;20.37;;;;;;;;;;5054500;28;20230;-82
2021/03/09 07:43:12;;;;;;;52.33;20.70;;;;;;;;;;5049211;28;20272;-84
2021/03/09 07:45:39;;;;;;;56.07;20.80;;;;;;;;;;5054292;28;20750;-83
2021/03/09 07:48:07;;;;;;;49.83;20.17;;;;;;;;;;5051277;28;20877;-82
2021/03/09 07:50:35;;;;;;;52.17;18.87;;;;;;;;;;5059138;28;20235;-83
2021/03/09 07:53:06;;;;;;;44.80;18.87;;;;;;;;;;5052753;28;20210;-82
2021/03/09 07:55:33;;;;;;;54.03;20.37;;;;;;;;;;5054545;28;20249;-82
2021/03/09 07:58:19;;;;;;;50.57;19.87;;;;;;;;;;5049896;28;20242;-82
2021/03/09 08:00:53;;;;;;;46.03;19.97;;;;;;;;;;5040475;28;20234;-81
2021/03/09 08:03:20;;;;;;;49.57;19.67;;;;;;;;;;5045715;28;20266;-81
2021/03/09 08:05:51;;;;;;;42.80;19.10;;;;;;;;;;5051915;28;20313;-81
2021/03/09 08:08:32;;;;;;;47.83;18.60;;;;;;;;;;5051109;28;20294;-81
2021/03/09 08:11:00;;;;;;;49.30;20.10;;;;;;;;;;5044735;28;20638;-81
2021/03/09 08:13:27;;;;;;;51.00;21.63;;;;;;;;;;5046860;28;20306;-82
2021/03/09 08:16:12;;;;;;;53.80;20.40;;;;;;;;;;5053017;28;20647;-81
2021/03/09 08:18:45;;;;;;;54.03;21.20;;;;;;;;;;5052385;28;20267;-81
2021/03/09 08:21:12;;;;;;;54.57;22.47;;;;;;;;;;5046849;28;20283;-82
2021/03/09 08:23:57;;;;;;;54.40;21.97;;;;;;;;;;5052148;28;20643;-82
2021/03/09 08:26:48;;;;;;;55.10;21.80;;;;;;;;;;5056048;28;20218;-82
2021/03/09 08:29:37;;;;;;;55.60;22.23;;;;;;;;;;5040230;28;20290;-82
2021/03/09 08:32:38;;;;;;;54.83;23.07;;;;;;;;;;5054252;28;20283;-82
2021/03/09 08:35:23;;;;;;;60.50;21.70;;;;;;;;;;5055338;28;20234;-82
2021/03/09 08:37:50;;;;;;;58.63;22.73;;;;;;;;;;5050637;28;20202;-81
2021/03/09 08:40:18;;;;;;;52.57;21.97;;;;;;;;;;5051016;28;20207;-81
2021/03/09 08:43:03;;;;;;;61.20;23.13;;;;;;;;;;5055549;28;20265;-82
2021/03/09 08:45:35;;;;;;;60.30;21.53;;;;;;;;;;5053942;28;20210;-81
2021/03/09 08:48:01;;;;;;;53.83;23.37;;;;;;;;;;5058812;28;20707;-82
2021/03/09 08:50:37;;;;;;;49.43;21.97;;;;;;;;;;5058010;28;20302;-82
2021/03/09 08:53:04;;;;;;;55.27;22.10;;;;;;;;;;5056059;28;20289;-83
2021/03/09 08:55:31;;;;;;;47.53;22.33;;;2.40;99.90;;;;;;5055020;28;20241;-81
2021/03/09 08:58:05;;;;;;;53.53;22.33;;;5.10;99.90;;;;;;5058708;28;20207;-82
2021/03/09 09:00:31;;;;;;;51.83;22.60;;;5.20;99.90;;;;;;5056484;28;20218;-82
2021/03/09 09:02:59;;;;;;;52.40;22.20;;;5.30;99.90;;;;;;5056578;28;20252;-82
2021/03/09 09:05:29;;;;;;;49.47;22.90;;;5.40;99.90;;;;;;5053377;28;20317;-80
2021/03/09 09:07:56;;;;;;;54.47;21.83;;;5.30;99.90;;;;;;5055632;28;20289;-82
2021/03/09 09:10:25;;;;;;;57.73;24.40;;;5.30;99.90;;;;;;5052735;28;20682;-81
2021/03/09 09:12:53;;;;;;;58.47;23.57;;;5.30;99.90;;;;;;5055541;28;20206;-81
2021/03/09 09:15:24;;;;;;;62.17;24.43;;;5.20;99.90;;;;;;5052269;28;20318;-82
2021/03/09 09:17:55;;;;;;;58.40;24.13;;;5.30;99.90;;;;;;5053156;28;20223;-82
2021/03/09 09:20:32;;;;;;;55.97;23.73;;;5.20;99.90;;;;;;5055401;28;20253;-82
2021/03/09 09:23:10;;;;;;;59.73;24.93;;;5.30;99.90;;;;;;5057823;28;20233;-81
2021/03/09 09:25:37;;;;;;;59.00;23.63;;;5.30;99.90;;;;;;5057037;28;20679;-82
2021/03/09 09:28:05;;;;;;;56.77;23.10;;;5.40;99.90;;;;;;5056468;28;20223;-82
2021/03/09 09:30:37;;;;;;;61.13;24.67;;;5.50;99.90;;;;;;5057371;28;20210;-80
2021/03/09 09:33:05;;;;;;;62.80;25.33;;;5.40;99.90;;;;;;5048327;28;20287;-82
2021/03/09 09:35:33;;;;;;;76.77;29.97;;;5.40;99.90;;;;;;5058287;28;20211;-82
2021/03/09 09:38:03;;;;;;;71.57;27.10;;;5.40;99.90;;;;;;5056840;28;20229;-82
2021/03/09 09:40:32;;;;;;;61.70;24.67;;;5.50;99.90;;;;;;5052452;28;20627;-82
2021/03/09 09:43:04;;;;;;;55.43;23.60;;;5.50;99.90;;;;;;5053791;28;20231;-82
2021/03/09 09:45:33;;;;;;;58.67;24.37;;;5.50;99.90;;;;;;5053618;28;20654;-83
2021/03/09 09:47:59;;;;;;;65.63;24.70;;;5.50;99.90;;;;;;5052117;28;20233;-82
2021/03/09 09:50:26;;;;;;;57.87;23.53;;;5.50;99.90;;;;;;5058139;28;20206;-81
2021/03/09 09:52:55;;;;;;;63.53;24.77;;;5.40;99.90;;;;;;5051196;28;20618;-82
2021/03/09 09:55:23;;;;;;;55.77;23.17;;;5.50;99.90;;;;;;5059697;28;20261;-82
2021/03/09 09:57:51;;;;;;;61.43;25.50;;;5.50;99.90;;;;;;5057223;28;20262;-82
2021/03/09 10:00:20;;;;;;;53.57;23.67;;;5.50;99.90;;;;;;5057464;28;20265;-83
2021/03/09 10:03:09;;;;;;;58.87;23.73;;;5.60;99.90;;;;;;5059184;28;20230;-82
2021/03/09 10:05:36;;;;;;;57.67;24.07;;;6.00;99.90;;;;;;5054819;28;20246;-83
2021/03/09 10:08:03;;;;;;;61.60;24.10;;;6.10;99.90;;;;;;5053969;28;20288;-84
2021/03/09 10:10:30;;;;;;;53.40;24.10;;;6.10;99.90;;;;;;5057076;28;20308;-83
2021/03/09 10:12:56;;;;;;;64.10;24.90;;;6.50;99.90;;;;;;5056355;28;20254;-82
2021/03/09 10:15:23;;;;;;;59.53;24.70;;;6.60;99.90;;;;;;5054559;28;20218;-81
2021/03/09 10:17:49;;;;;;;60.47;23.40;;;6.50;99.90;;;;;;5057664;28;20207;-83
2021/03/09 10:20:23;;;;;;;58.20;23.57;;;6.40;99.90;;;;;;5054668;28;20262;-83
2021/03/09 10:23:00;;;;;;;56.13;22.83;;;6.50;99.90;;;;;;5056084;28;20261;-83
2021/03/09 10:25:28;;;;;;;43.27;17.70;;;6.60;99.90;;;;;;5054582;28;20219;-82
2021/03/09 10:28:01;;;;;;;47.20;18.23;;;6.60;99.90;;;;;;5059737;28;20218;-83
2021/03/09 10:30:36;;;;;;;36.77;15.53;;;6.40;99.90;;;;;;5055122;28;20238;-83
2021/03/09 10:33:08;;;;;;;35.63;15.50;;;6.40;99.90;;;;;;5050027;28;20214;-83
2021/03/09 10:35:35;;;;;;;36.20;14.57;;;6.20;99.90;;;;;;5054919;28;20714;-83
2021/03/09 10:38:01;;;;;;;31.67;13.77;;;6.30;99.90;;;;;;5049852;28;20245;-83
2021/03/09 10:40:34;;;;;;;32.43;14.00;;;6.20;99.90;;;;;;5047394;28;20235;-83
2021/03/09 10:43:01;;;;;;;34.40;14.30;;;6.30;99.90;;;;;;5048000;28;20757;-83
2021/03/09 10:45:30;;;;;;;34.23;14.13;;;6.30;99.90;;;;;;5048217;28;20237;-81
2021/03/09 10:47:59;;;;;;;36.40;14.60;;;6.30;99.90;;;;;;5050390;28;20203;-81
2021/03/09 10:50:27;;;;;;;32.57;14.03;;;6.20;99.90;;;;;;5050730;28;20249;-82
2021/03/09 10:52:55;;;;;;;31.70;13.43;;;6.20;99.90;;;;;;5047538;28;20234;-82
2021/03/09 10:55:22;;;;;;;36.70;13.87;;;6.10;99.90;;;;;;5058181;28;20663;-81
2021/03/09 10:57:49;;;;;;;30.57;12.47;;;6.20;99.90;;;;;;5067056;28;20200;-81
2021/03/09 11:00:18;;;;;;;31.13;13.00;;;6.20;99.90;;;;;;5062261;28;20246;-81
2021/03/09 11:02:45;;;;;;;30.87;13.07;;;6.30;99.90;;;;;;5065145;28;20242;-82
2021/03/09 11:05:12;;;;;;;26.37;11.10;;;6.30;99.90;;;;;;5068800;28;20279;-80
2021/03/09 11:07:39;;;;;;;30.97;11.73;;;6.10;99.90;;;;;;5070744;28;20195;-80
2021/03/09 11:10:07;;;;;;;29.40;11.37;;;6.10;99.90;;;;;;5069955;28;20294;-83
2021/03/09 11:12:34;;;;;;;24.70;11.17;;;6.10;99.90;;;;;;5053210;28;20341;-82
2021/03/09 11:15:01;;;;;;;28.00;11.10;;;6.00;99.90;;;;;;5049949;28;20331;-82
2021/03/09 11:17:28;;;;;;;25.37;10.43;;;6.00;99.90;;;;;;5048564;28;20214;-82
2021/03/09 11:19:54;;;;;;;23.90;10.60;;;5.90;99.90;;;;;;5047290;28;20251;-81
2021/03/09 11:22:21;;;;;;;25.20;10.53;;;5.90;99.90;;;;;;5050823;28;20260;-82
2021/03/09 11:24:48;;;;;;;22.37;9.33;;;6.00;99.90;;;;;;5050441;28;20711;-81
2021/03/09 11:27:14;;;;;;;26.17;12.07;;;6.00;99.90;;;;;;5055260;28;20663;-83
2021/03/09 11:29:41;;;;;;;29.10;11.50;;;5.90;99.90;;;;;;5048213;28;20215;-82
2021/03/09 11:32:08;;;;;;;31.80;14.00;;;5.90;99.90;;;;;;5049350;28;20640;-82
2021/03/09 11:34:35;;;;;;;29.00;11.03;;;5.90;99.90;;;;;;5053296;28;20309;-82
2021/03/09 11:37:02;;;;;;;30.90;12.80;;;5.90;99.90;;;;;;5049432;28;20207;-82
2021/03/09 11:39:29;;;;;;;31.13;13.37;;;5.90;99.90;;;;;;5052423;28;20610;-82
2021/03/09 11:41:55;;;;;;;30.77;11.43;;;5.90;99.90;;;;;;5050372;28;20207;-83
2021/03/09 11:44:22;;;;;;;29.90;11.57;;;5.90;99.90;;;;;;5050470;28;20274;-82
2021/03/09 11:46:49;;;;;;;26.97;11.67;;;5.90;99.90;;;;;;5052354;28;20693;-82
2021/03/09 11:49:17;;;;;;;26.93;11.17;;;5.80;99.90;;;;;;5054876;28;20199;-82
2021/03/09 11:51:44;;;;;;;27.40;12.13;;;5.90;99.90;;;;;;5048699;28;20199;-82
2021/03/09 11:54:12;;;;;;;31.80;12.73;;;5.90;99.90;;;;;;5053642;28;20224;-82
2021/03/09 11:56:38;;;;;;;25.67;11.30;;;5.90;99.90;;;;;;5056439;28;20663;-82
2021/03/09 11:59:05;;;;;;;31.17;13.03;;;5.90;99.90;;;;;;5057057;28;20215;-83
2021/03/09 12:01:31;;;;;;;35.37;14.90;;;6.00;99.90;;;;;;5055034;28;20563;-83
2021/03/09 12:03:58;;;;;;;34.23;13.50;;;6.00;99.90;;;;;;5060416;28;20285;-82
2021/03/09 12:06:25;;;;;;;31.23;13.47;;;5.90;99.90;;;;;;5057552;28;20627;-82
2021/03/09 12:08:51;;;;;;;36.93;15.00;;;5.90;99.90;;;;;;5056410;28;20199;-83
2021/03/09 12:11:19;;;;;;;42.97;16.77;;;5.90;99.90;;;;;;5059831;28;20472;-82
2021/03/09 12:13:46;;;;;;;48.73;18.13;;;5.90;99.90;;;;;;5058568;28;20677;-82
2021/03/09 12:16:12;;;;;;;42.90;17.20;;;5.80;99.90;;;;;;5060439;28;20522;-82
2021/03/09 12:18:38;;;;;;;42.53;17.90;;;5.70;99.90;;;;;;5057413;28;20621;-81
2021/03/09 12:21:06;;;;;;;47.07;18.50;;;5.70;99.90;;;;;;5059994;28;20277;-82
2021/03/09 12:23:33;;;;;;;39.77;16.90;;;5.70;99.90;;;;;;5059964;28;20234;-83
2021/03/09 12:25:59;;;;;;;41.63;16.50;;;5.70;99.90;;;;;;5059144;28;20290;-83
2021/03/09 12:28:26;;;;;;;42.63;15.60;;;5.60;99.90;;;;;;5059181;28;20725;-83
2021/03/09 12:30:52;;;;;;;35.87;14.53;;;5.60;99.90;;;;;;5055875;28;20203;-81
2021/03/09 12:33:18;;;;;;;34.10;14.97;;;5.60;99.90;;;;;;5054182;28;20242;-82
2021/03/09 12:35:45;;;;;;;31.07;13.67;;;5.60;99.90;;;;;;5057965;28;20281;-81
2021/03/09 12:38:12;;;;;;;38.27;13.67;;;5.60;99.90;;;;;;5035937;28;20572;-82
2021/03/09 12:40:41;;;;;;;31.93;12.27;;;5.60;99.90;;;;;;5055185;28;20203;-83
2021/03/09 12:43:08;;;;;;;33.87;13.17;;;5.60;99.90;;;;;;5060429;28;20717;-82
2021/03/09 12:45:34;;;;;;;34.13;12.67;;;5.60;99.90;;;;;;5059367;28;20219;-82
2021/03/09 12:48:01;;;;;;;28.57;12.23;;;5.50;99.90;;;;;;5057790;28;20266;-82
2021/03/09 12:50:27;;;;;;;27.10;11.23;;;5.50;99.90;;;;;;5059070;28;20772;-82
2021/03/09 12:52:53;;;;;;;28.17;11.53;;;5.40;99.90;;;;;;5060036;28;20222;-81
2021/03/09 12:55:20;;;;;;;29.10;11.07;;;5.40;99.90;;;;;;5069626;28;20215;-81
2021/03/09 12:57:47;;;;;;;24.73;10.53;;;5.40;99.90;;;;;;5071276;28;20194;-81
2021/03/09 13:00:15;;;;;;;29.03;10.77;;;5.40;99.90;;;;;;5061226;28;20203;-82
2021/03/09 13:02:42;;;;;;;25.23;10.43;;;5.40;99.90;;;;;;5058355;28;20231;-81
2021/03/09 13:05:10;;;;;;;24.77;11.00;;;5.30;99.90;;;;;;5053244;28;20223;-82
2021/03/09 13:07:36;;;;;;;27.43;10.63;;;5.30;99.90;;;;;;5052878;28;20235;-82
2021/03/09 13:10:05;;;;;;;24.53;10.57;;;5.30;99.90;;;;;;5052388;28;20234;-82
2021/03/09 13:12:31;;;;;;;28.63;10.57;;;5.30;99.90;;;;;;5055496;28;20211;-82
2021/03/09 13:14:59;;;;;;;27.17;10.97;;;5.30;99.90;;;;;;5054267;28;20316;-82
2021/03/09 13:17:25;;;;;;;26.00;11.13;;;5.30;99.90;;;;;;5056759;28;20234;-82
2021/03/09 13:19:51;;;;;;;24.43;10.60;;;5.30;99.90;;;;;;5053995;28;20213;-82
2021/03/09 13:22:18;;;;;;;29.47;10.73;;;5.30;99.90;;;;;;5057112;28;20207;-82
2021/03/09 13:24:46;;;;;;;28.40;11.30;;;5.30;99.90;;;;;;5055292;28;20234;-81
2021/03/09 13:27:13;;;;;;;32.13;11.70;;;5.30;99.90;;;;;;5051587;28;20203;-81
2021/03/09 13:29:39;;;;;;;31.20;11.00;;;5.30;99.90;;;;;;5057298;28;20230;-82
2021/03/09 13:32:07;;;;;;;29.70;11.60;;;5.30;99.90;;;;;;5053658;28;20222;-84
2021/03/09 13:34:34;;;;;;;30.93;12.20;;;5.30;99.90;;;;;;5055397;28;20270;-81
2021/03/09 13:37:00;;;;;;;29.87;11.47;;;5.30;99.90;;;;;;5053677;28;20210;-81
2021/03/09 13:39:27;;;;;;;28.37;11.60;;;5.30;99.90;;;;;;5050259;28;20703;-82
2021/03/09 13:41:53;;;;;;;35.60;13.00;;;5.30;99.90;;;;;;5051329;28;20192;-81
2021/03/09 13:44:20;;;;;;;32.77;12.33;;;5.30;99.90;;;;;;5056854;28;20254;-81
2021/03/09 13:46:46;;;;;;;29.23;12.23;;;5.30;99.90;;;;;;5057267;28;20206;-82